sensor_id;sensor_type;location;lat;lon;timestamp;temperature;humidity
50955;DHT22;36966;48.064;-0.792;2023-06-14T00:01:19;26.60;50.70
50955;DHT22;36966;48.064;-0.792;2023-06-14T00:03:41;26.60;50.70
50955;DHT22;36966;48.064;-0.792;2023-06-14T00:06:00;26.60;50.70
50955;DHT22;36966;48.064;-0.792;2023-06-14T00:08:20;26.50;50.60
50955;DHT22;36966;48.064;-0.792;2023-06-14T00:10:42;26.50;50.70
50955;DHT22;36966;48.064;-0.792;2023-06-14T00:13:01;26.60;50.70
50955;DHT22;36966;48.064;-0.792;2023-06-14T00:15:21;26.50;50.70
50955;DHT22;36966;48.064;-0.792;2023-06-14T00:17:40;26.50;50.60
50955;DHT22;36966;48.064;-0.792;2023-06-14T00:19:59;26.50;50.60
50955;DHT22;36966;48.064;-0.792;2023-06-14T00:22:18;26.50;50.60
50955;DHT22;36966;48.064;-0.792;2023-06-14T00:24:39;26.50;50.60
50955;DHT22;36966;48.064;-0.792;2023-06-14T00:26:58;26.50;50.50
50955;DHT22;36966;48.064;-0.792;2023-06-14T00:29:17;26.50;50.50
50955;DHT22;36966;48.064;-0.792;2023-06-14T00:31:36;26.50;50.50
50955;DHT22;36966;48.064;-0.792;2023-06-14T00:33:55;26.50;50.50
50955;DHT22;36966;48.064;-0.792;2023-06-14T00:36:15;26.50;50.50
50955;DHT22;36966;48.064;-0.792;2023-06-14T00:38:34;26.40;50.50
50955;DHT22;36966;48.064;-0.792;2023-06-14T00:40:54;26.40;50.50
50955;DHT22;36966;48.064;-0.792;2023-06-14T00:43:13;26.40;50.50
50955;DHT22;36966;48.064;-0.792;2023-06-14T00:45:32;26.40;50.50
50955;DHT22;36966;48.064;-0.792;2023-06-14T00:47:55;26.40;50.40
50955;DHT22;36966;48.064;-0.792;2023-06-14T00:50:14;26.40;50.40
50955;DHT22;36966;48.064;-0.792;2023-06-14T00:52:34;26.40;50.40
50955;DHT22;36966;48.064;-0.792;2023-06-14T00:54:54;26.40;50.30
50955;DHT22;36966;48.064;-0.792;2023-06-14T00:57:13;26.40;50.30
50955;DHT22;36966;48.064;-0.792;2023-06-14T00:59:33;26.40;50.30
50955;DHT22;36966;48.064;-0.792;2023-06-14T01:01:53;26.40;50.30
50955;DHT22;36966;48.064;-0.792;2023-06-14T01:04:12;26.40;50.30
50955;DHT22;36966;48.064;-0.792;2023-06-14T01:06:35;26.40;50.30
50955;DHT22;36966;48.064;-0.792;2023-06-14T01:09:03;26.30;50.30
50955;DHT22;36966;48.064;-0.792;2023-06-14T01:11:27;26.30;50.30
50955;DHT22;36966;48.064;-0.792;2023-06-14T01:13:47;26.30;50.30
50955;DHT22;36966;48.064;-0.792;2023-06-14T01:16:08;26.30;50.30
50955;DHT22;36966;48.064;-0.792;2023-06-14T01:18:28;26.30;50.20
50955;DHT22;36966;48.064;-0.792;2023-06-14T01:20:48;26.30;50.20
50955;DHT22;36966;48.064;-0.792;2023-06-14T01:23:08;26.20;50.20
50955;DHT22;36966;48.064;-0.792;2023-06-14T01:25:27;26.30;50.20
50955;DHT22;36966;48.064;-0.792;2023-06-14T01:27:47;26.20;50.20
50955;DHT22;36966;48.064;-0.792;2023-06-14T01:30:07;26.30;50.20
50955;DHT22;36966;48.064;-0.792;2023-06-14T01:32:29;26.30;50.20
50955;DHT22;36966;48.064;-0.792;2023-06-14T01:34:48;26.20;50.20
50955;DHT22;36966;48.064;-0.792;2023-06-14T01:37:07;26.20;50.20
50955;DHT22;36966;48.064;-0.792;2023-06-14T01:39:27;26.20;50.20
50955;DHT22;36966;48.064;-0.792;2023-06-14T01:41:47;26.20;50.20
50955;DHT22;36966;48.064;-0.792;2023-06-14T01:44:17;26.20;50.10
50955;DHT22;36966;48.064;-0.792;2023-06-14T01:46:37;26.20;50.10
50955;DHT22;36966;48.064;-0.792;2023-06-14T01:48:57;26.20;50.10
50955;DHT22;36966;48.064;-0.792;2023-06-14T01:51:17;26.20;50.10
50955;DHT22;36966;48.064;-0.792;2023-06-14T01:53:36;26.20;50.10
50955;DHT22;36966;48.064;-0.792;2023-06-14T01:55:55;26.20;50.10
50955;DHT22;36966;48.064;-0.792;2023-06-14T01:58:15;26.20;50.10
50955;DHT22;36966;48.064;-0.792;2023-06-14T02:00:38;26.20;50.10
50955;DHT22;36966;48.064;-0.792;2023-06-14T02:02:57;26.20;50.10
50955;DHT22;36966;48.064;-0.792;2023-06-14T02:05:16;26.20;50.10
50955;DHT22;36966;48.064;-0.792;2023-06-14T02:07:38;26.10;50.10
50955;DHT22;36966;48.064;-0.792;2023-06-14T02:09:57;26.20;50.10
50955;DHT22;36966;48.064;-0.792;2023-06-14T02:12:16;26.10;50.10
50955;DHT22;36966;48.064;-0.792;2023-06-14T02:14:36;26.10;50.00
50955;DHT22;36966;48.064;-0.792;2023-06-14T02:16:55;26.10;50.00
50955;DHT22;36966;48.064;-0.792;2023-06-14T02:19:18;26.10;50.00
50955;DHT22;36966;48.064;-0.792;2023-06-14T02:21:37;26.10;50.00
50955;DHT22;36966;48.064;-0.792;2023-06-14T02:23:56;26.10;50.00
50955;DHT22;36966;48.064;-0.792;2023-06-14T02:26:15;26.10;50.00
50955;DHT22;36966;48.064;-0.792;2023-06-14T02:28:34;26.10;50.00
50955;DHT22;36966;48.064;-0.792;2023-06-14T02:30:54;26.10;50.10
50955;DHT22;36966;48.064;-0.792;2023-06-14T02:33:13;26.00;50.00
50955;DHT22;36966;48.064;-0.792;2023-06-14T02:35:33;26.00;50.00
50955;DHT22;36966;48.064;-0.792;2023-06-14T02:37:52;26.00;50.00
50955;DHT22;36966;48.064;-0.792;2023-06-14T02:40:11;26.00;49.90
50955;DHT22;36966;48.064;-0.792;2023-06-14T02:42:31;26.00;49.90
50955;DHT22;36966;48.064;-0.792;2023-06-14T02:44:50;26.00;49.90
50955;DHT22;36966;48.064;-0.792;2023-06-14T02:47:10;26.00;49.90
50955;DHT22;36966;48.064;-0.792;2023-06-14T02:49:29;26.00;49.90
50955;DHT22;36966;48.064;-0.792;2023-06-14T02:51:48;26.00;49.80
50955;DHT22;36966;48.064;-0.792;2023-06-14T02:54:08;26.00;49.90
50955;DHT22;36966;48.064;-0.792;2023-06-14T02:56:27;26.00;49.80
50955;DHT22;36966;48.064;-0.792;2023-06-14T02:58:46;26.00;49.80
50955;DHT22;36966;48.064;-0.792;2023-06-14T03:01:07;25.90;49.80
50955;DHT22;36966;48.064;-0.792;2023-06-14T03:03:26;26.00;49.80
50955;DHT22;36966;48.064;-0.792;2023-06-14T03:05:46;26.00;49.80
50955;DHT22;36966;48.064;-0.792;2023-06-14T03:08:06;25.90;49.70
50955;DHT22;36966;48.064;-0.792;2023-06-14T03:10:25;26.00;49.70
50955;DHT22;36966;48.064;-0.792;2023-06-14T03:12:47;26.00;49.70
50955;DHT22;36966;48.064;-0.792;2023-06-14T03:15:07;25.90;49.70
50955;DHT22;36966;48.064;-0.792;2023-06-14T03:17:26;25.90;49.70
50955;DHT22;36966;48.064;-0.792;2023-06-14T03:19:49;25.90;49.70
50955;DHT22;36966;48.064;-0.792;2023-06-14T03:22:08;25.90;49.70
50955;DHT22;36966;48.064;-0.792;2023-06-14T03:24:27;25.90;49.70
50955;DHT22;36966;48.064;-0.792;2023-06-14T03:26:47;25.90;49.60
50955;DHT22;36966;48.064;-0.792;2023-06-14T03:29:06;25.90;49.70
50955;DHT22;36966;48.064;-0.792;2023-06-14T03:31:26;25.90;49.60
50955;DHT22;36966;48.064;-0.792;2023-06-14T03:33:46;25.90;49.70
50955;DHT22;36966;48.064;-0.792;2023-06-14T03:36:05;25.80;49.60
50955;DHT22;36966;48.064;-0.792;2023-06-14T03:38:25;25.80;49.60
50955;DHT22;36966;48.064;-0.792;2023-06-14T03:40:44;25.90;49.40
50955;DHT22;36966;48.064;-0.792;2023-06-14T03:43:04;25.70;49.60
50955;DHT22;36966;48.064;-0.792;2023-06-14T03:45:23;25.70;49.50
50955;DHT22;36966;48.064;-0.792;2023-06-14T03:47:42;25.70;49.40
50955;DHT22;36966;48.064;-0.792;2023-06-14T03:50:02;25.70;49.40
50955;DHT22;36966;48.064;-0.792;2023-06-14T03:52:22;25.70;49.40
50955;DHT22;36966;48.064;-0.792;2023-06-14T03:54:42;25.70;49.40
50955;DHT22;36966;48.064;-0.792;2023-06-14T03:57:03;25.70;49.40
50955;DHT22;36966;48.064;-0.792;2023-06-14T03:59:22;25.70;49.40
50955;DHT22;36966;48.064;-0.792;2023-06-14T04:01:42;25.70;49.40
50955;DHT22;36966;48.064;-0.792;2023-06-14T04:04:03;25.70;49.40
50955;DHT22;36966;48.064;-0.792;2023-06-14T04:06:23;25.70;49.40
50955;DHT22;36966;48.064;-0.792;2023-06-14T04:08:43;25.70;49.40
50955;DHT22;36966;48.064;-0.792;2023-06-14T04:11:04;25.70;49.40
50955;DHT22;36966;48.064;-0.792;2023-06-14T04:13:24;25.70;49.50
50955;DHT22;36966;48.064;-0.792;2023-06-14T04:15:43;25.70;49.40
50955;DHT22;36966;48.064;-0.792;2023-06-14T04:18:04;25.70;49.50
50955;DHT22;36966;48.064;-0.792;2023-06-14T04:20:24;25.70;49.40
50955;DHT22;36966;48.064;-0.792;2023-06-14T04:22:44;25.70;49.40
50955;DHT22;36966;48.064;-0.792;2023-06-14T04:25:03;25.70;49.40
50955;DHT22;36966;48.064;-0.792;2023-06-14T04:27:27;25.70;49.50
50955;DHT22;36966;48.064;-0.792;2023-06-14T04:29:50;25.70;49.50
50955;DHT22;36966;48.064;-0.792;2023-06-14T04:32:15;25.70;49.50
50955;DHT22;36966;48.064;-0.792;2023-06-14T04:34:37;25.70;49.50
50955;DHT22;36966;48.064;-0.792;2023-06-14T04:36:56;25.70;49.50
50955;DHT22;36966;48.064;-0.792;2023-06-14T04:39:16;25.70;49.50
50955;DHT22;36966;48.064;-0.792;2023-06-14T04:41:39;25.60;49.50
50955;DHT22;36966;48.064;-0.792;2023-06-14T04:43:58;25.70;49.50
50955;DHT22;36966;48.064;-0.792;2023-06-14T04:46:20;25.60;49.60
50955;DHT22;36966;48.064;-0.792;2023-06-14T04:48:40;25.70;49.50
50955;DHT22;36966;48.064;-0.792;2023-06-14T04:51:01;25.70;49.50
50955;DHT22;36966;48.064;-0.792;2023-06-14T04:53:23;25.60;49.50
50955;DHT22;36966;48.064;-0.792;2023-06-14T04:55:42;25.70;49.40
50955;DHT22;36966;48.064;-0.792;2023-06-14T04:58:03;25.70;49.40
50955;DHT22;36966;48.064;-0.792;2023-06-14T05:00:23;25.70;49.30
50955;DHT22;36966;48.064;-0.792;2023-06-14T05:02:42;25.70;49.40
50955;DHT22;36966;48.064;-0.792;2023-06-14T05:05:02;25.70;49.40
50955;DHT22;36966;48.064;-0.792;2023-06-14T05:07:21;25.70;49.40
50955;DHT22;36966;48.064;-0.792;2023-06-14T05:09:43;25.70;49.40
50955;DHT22;36966;48.064;-0.792;2023-06-14T05:12:02;25.70;49.40
50955;DHT22;36966;48.064;-0.792;2023-06-14T05:14:22;25.70;49.40
50955;DHT22;36966;48.064;-0.792;2023-06-14T05:16:41;25.60;49.40
50955;DHT22;36966;48.064;-0.792;2023-06-14T05:19:02;25.70;49.40
50955;DHT22;36966;48.064;-0.792;2023-06-14T05:21:21;25.70;49.50
50955;DHT22;36966;48.064;-0.792;2023-06-14T05:23:41;25.60;49.50
50955;DHT22;36966;48.064;-0.792;2023-06-14T05:26:00;25.60;49.50
50955;DHT22;36966;48.064;-0.792;2023-06-14T05:28:22;25.60;49.60
50955;DHT22;36966;48.064;-0.792;2023-06-14T05:30:41;25.60;49.60
50955;DHT22;36966;48.064;-0.792;2023-06-14T05:33:00;25.60;49.60
50955;DHT22;36966;48.064;-0.792;2023-06-14T05:35:20;25.70;49.60
50955;DHT22;36966;48.064;-0.792;2023-06-14T05:37:41;25.60;49.60
50955;DHT22;36966;48.064;-0.792;2023-06-14T05:40:00;25.60;49.70
50955;DHT22;36966;48.064;-0.792;2023-06-14T05:42:19;25.60;49.70
50955;DHT22;36966;48.064;-0.792;2023-06-14T05:44:39;25.60;49.70
50955;DHT22;36966;48.064;-0.792;2023-06-14T05:46:58;25.60;49.80
50955;DHT22;36966;48.064;-0.792;2023-06-14T05:49:17;25.60;49.80
50955;DHT22;36966;48.064;-0.792;2023-06-14T05:51:36;25.60;49.80
50955;DHT22;36966;48.064;-0.792;2023-06-14T05:53:56;25.60;49.80
50955;DHT22;36966;48.064;-0.792;2023-06-14T05:56:16;25.60;49.90
50955;DHT22;36966;48.064;-0.792;2023-06-14T05:58:37;25.60;49.90
50955;DHT22;36966;48.064;-0.792;2023-06-14T06:00:56;25.60;50.10
50955;DHT22;36966;48.064;-0.792;2023-06-14T06:03:16;25.60;50.00
50955;DHT22;36966;48.064;-0.792;2023-06-14T06:05:35;25.60;50.00
50955;DHT22;36966;48.064;-0.792;2023-06-14T06:07:54;25.70;50.00
50955;DHT22;36966;48.064;-0.792;2023-06-14T06:10:14;25.60;50.00
50955;DHT22;36966;48.064;-0.792;2023-06-14T06:12:34;25.70;49.90
50955;DHT22;36966;48.064;-0.792;2023-06-14T06:14:53;25.60;50.00
50955;DHT22;36966;48.064;-0.792;2023-06-14T06:17:12;25.70;50.00
50955;DHT22;36966;48.064;-0.792;2023-06-14T06:19:31;25.70;50.00
50955;DHT22;36966;48.064;-0.792;2023-06-14T06:21:51;25.70;50.00
50955;DHT22;36966;48.064;-0.792;2023-06-14T06:24:10;25.70;50.00
50955;DHT22;36966;48.064;-0.792;2023-06-14T06:26:29;25.70;50.00
50955;DHT22;36966;48.064;-0.792;2023-06-14T06:28:49;25.70;50.00
50955;DHT22;36966;48.064;-0.792;2023-06-14T06:31:08;25.70;49.90
50955;DHT22;36966;48.064;-0.792;2023-06-14T06:33:29;25.70;50.00
50955;DHT22;36966;48.064;-0.792;2023-06-14T06:35:48;25.70;50.00
50955;DHT22;36966;48.064;-0.792;2023-06-14T06:38:08;25.70;50.00
50955;DHT22;36966;48.064;-0.792;2023-06-14T06:40:28;25.70;50.10
50955;DHT22;36966;48.064;-0.792;2023-06-14T06:42:48;25.70;50.10
50955;DHT22;36966;48.064;-0.792;2023-06-14T06:45:07;25.70;50.10
50955;DHT22;36966;48.064;-0.792;2023-06-14T06:47:26;25.70;50.20
50955;DHT22;36966;48.064;-0.792;2023-06-14T06:49:45;25.70;50.20
50955;DHT22;36966;48.064;-0.792;2023-06-14T06:52:05;25.80;50.10
50955;DHT22;36966;48.064;-0.792;2023-06-14T06:54:25;25.80;50.10
50955;DHT22;36966;48.064;-0.792;2023-06-14T06:56:44;25.80;50.00
50955;DHT22;36966;48.064;-0.792;2023-06-14T06:59:03;25.80;50.00
50955;DHT22;36966;48.064;-0.792;2023-06-14T07:01:22;25.90;50.00
50955;DHT22;36966;48.064;-0.792;2023-06-14T07:03:43;25.90;50.00
50955;DHT22;36966;48.064;-0.792;2023-06-14T07:06:02;26.00;50.00
50955;DHT22;36966;48.064;-0.792;2023-06-14T07:08:22;26.00;50.00
50955;DHT22;36966;48.064;-0.792;2023-06-14T07:10:41;26.00;50.00
50955;DHT22;36966;48.064;-0.792;2023-06-14T07:13:00;26.00;49.90
50955;DHT22;36966;48.064;-0.792;2023-06-14T07:15:19;26.00;49.90
50955;DHT22;36966;48.064;-0.792;2023-06-14T07:17:38;26.00;49.80
50955;DHT22;36966;48.064;-0.792;2023-06-14T07:19:58;26.00;49.80
50955;DHT22;36966;48.064;-0.792;2023-06-14T07:22:17;26.00;49.80
50955;DHT22;36966;48.064;-0.792;2023-06-14T07:24:37;26.10;49.80
50955;DHT22;36966;48.064;-0.792;2023-06-14T07:26:56;26.10;49.80
50955;DHT22;36966;48.064;-0.792;2023-06-14T07:29:15;26.10;49.80
50955;DHT22;36966;48.064;-0.792;2023-06-14T07:31:35;26.10;49.80
50955;DHT22;36966;48.064;-0.792;2023-06-14T07:33:54;26.10;49.70
50955;DHT22;36966;48.064;-0.792;2023-06-14T07:36:14;26.20;49.80
50955;DHT22;36966;48.064;-0.792;2023-06-14T07:38:33;26.20;49.70
50955;DHT22;36966;48.064;-0.792;2023-06-14T07:40:53;26.20;49.60
50955;DHT22;36966;48.064;-0.792;2023-06-14T07:43:12;26.20;49.60
50955;DHT22;36966;48.064;-0.792;2023-06-14T07:45:32;26.20;49.60
50955;DHT22;36966;48.064;-0.792;2023-06-14T07:47:51;26.20;49.50
50955;DHT22;36966;48.064;-0.792;2023-06-14T07:50:10;26.30;49.50
50955;DHT22;36966;48.064;-0.792;2023-06-14T07:52:30;26.30;49.50
50955;DHT22;36966;48.064;-0.792;2023-06-14T07:54:50;26.30;49.50
50955;DHT22;36966;48.064;-0.792;2023-06-14T07:57:09;26.30;49.50
50955;DHT22;36966;48.064;-0.792;2023-06-14T07:59:28;26.40;49.40
50955;DHT22;36966;48.064;-0.792;2023-06-14T08:01:47;26.40;49.50
50955;DHT22;36966;48.064;-0.792;2023-06-14T08:04:07;26.40;49.40
50955;DHT22;36966;48.064;-0.792;2023-06-14T08:06:26;26.40;49.40
50955;DHT22;36966;48.064;-0.792;2023-06-14T08:08:46;26.50;49.40
50955;DHT22;36966;48.064;-0.792;2023-06-14T08:11:05;26.50;49.40
50955;DHT22;36966;48.064;-0.792;2023-06-14T08:13:24;26.50;49.30
50955;DHT22;36966;48.064;-0.792;2023-06-14T08:15:44;26.50;49.30
50955;DHT22;36966;48.064;-0.792;2023-06-14T08:18:03;26.60;49.20
50955;DHT22;36966;48.064;-0.792;2023-06-14T08:20:22;26.70;49.10
50955;DHT22;36966;48.064;-0.792;2023-06-14T08:22:41;26.70;49.00
50955;DHT22;36966;48.064;-0.792;2023-06-14T08:25:01;26.70;48.90
50955;DHT22;36966;48.064;-0.792;2023-06-14T08:27:20;26.70;48.80
50955;DHT22;36966;48.064;-0.792;2023-06-14T08:29:40;26.70;48.90
50955;DHT22;36966;48.064;-0.792;2023-06-14T08:32:00;26.80;48.80
50955;DHT22;36966;48.064;-0.792;2023-06-14T08:34:19;26.80;48.70
50955;DHT22;36966;48.064;-0.792;2023-06-14T08:36:39;26.90;48.80
50955;DHT22;36966;48.064;-0.792;2023-06-14T08:38:58;26.80;49.10
50955;DHT22;36966;48.064;-0.792;2023-06-14T08:41:21;26.90;49.20
50955;DHT22;36966;48.064;-0.792;2023-06-14T08:43:43;27.00;49.30
50955;DHT22;36966;48.064;-0.792;2023-06-14T08:46:03;27.00;49.00
50955;DHT22;36966;48.064;-0.792;2023-06-14T08:48:23;27.00;48.90
50955;DHT22;36966;48.064;-0.792;2023-06-14T08:50:45;27.00;48.90
50955;DHT22;36966;48.064;-0.792;2023-06-14T08:53:06;27.00;49.00
50955;DHT22;36966;48.064;-0.792;2023-06-14T08:55:30;27.00;49.10
50955;DHT22;36966;48.064;-0.792;2023-06-14T08:57:49;27.10;48.90
50955;DHT22;36966;48.064;-0.792;2023-06-14T09:00:09;27.10;48.90
50955;DHT22;36966;48.064;-0.792;2023-06-14T09:02:33;27.10;49.00
50955;DHT22;36966;48.064;-0.792;2023-06-14T09:04:54;27.20;48.90
50955;DHT22;36966;48.064;-0.792;2023-06-14T09:07:18;27.20;48.90
50955;DHT22;36966;48.064;-0.792;2023-06-14T09:09:41;27.20;48.60
50955;DHT22;36966;48.064;-0.792;2023-06-14T09:12:00;27.20;48.50
50955;DHT22;36966;48.064;-0.792;2023-06-14T09:14:23;27.20;48.60
50955;DHT22;36966;48.064;-0.792;2023-06-14T09:16:43;27.20;48.50
50955;DHT22;36966;48.064;-0.792;2023-06-14T09:19:03;27.30;48.50
50955;DHT22;36966;48.064;-0.792;2023-06-14T09:21:23;27.30;48.10
50955;DHT22;36966;48.064;-0.792;2023-06-14T09:23:42;27.30;48.20
50955;DHT22;36966;48.064;-0.792;2023-06-14T09:26:06;27.30;48.20
50955;DHT22;36966;48.064;-0.792;2023-06-14T09:28:28;27.40;47.80
50955;DHT22;36966;48.064;-0.792;2023-06-14T09:30:47;27.40;47.80
50955;DHT22;36966;48.064;-0.792;2023-06-14T09:33:06;27.40;48.10
50955;DHT22;36966;48.064;-0.792;2023-06-14T09:35:25;27.50;47.50
50955;DHT22;36966;48.064;-0.792;2023-06-14T09:37:47;27.50;47.90
50955;DHT22;36966;48.064;-0.792;2023-06-14T09:40:06;27.50;47.70
50955;DHT22;36966;48.064;-0.792;2023-06-14T09:42:26;27.50;47.20
50955;DHT22;36966;48.064;-0.792;2023-06-14T09:44:47;27.50;46.50
50955;DHT22;36966;48.064;-0.792;2023-06-14T09:47:06;27.50;46.80
50955;DHT22;36966;48.064;-0.792;2023-06-14T09:49:25;27.50;46.80
50955;DHT22;36966;48.064;-0.792;2023-06-14T09:51:45;27.70;46.40
50955;DHT22;36966;48.064;-0.792;2023-06-14T09:54:04;27.60;46.60
50955;DHT22;36966;48.064;-0.792;2023-06-14T09:58:43;27.70;45.80
50955;DHT22;36966;48.064;-0.792;2023-06-14T10:01:02;27.60;46.50
50955;DHT22;36966;48.064;-0.792;2023-06-14T10:03:25;27.60;46.80
50955;DHT22;36966;48.064;-0.792;2023-06-14T10:05:47;27.60;46.70
50955;DHT22;36966;48.064;-0.792;2023-06-14T10:08:08;27.60;46.50
50955;DHT22;36966;48.064;-0.792;2023-06-14T10:10:28;27.70;46.00
50955;DHT22;36966;48.064;-0.792;2023-06-14T10:12:47;27.70;44.60
50955;DHT22;36966;48.064;-0.792;2023-06-14T10:15:08;27.70;45.70
50955;DHT22;36966;48.064;-0.792;2023-06-14T10:19:56;27.70;45.80
50955;DHT22;36966;48.064;-0.792;2023-06-14T10:22:18;27.70;46.20
50955;DHT22;36966;48.064;-0.792;2023-06-14T10:24:42;27.70;46.00
50955;DHT22;36966;48.064;-0.792;2023-06-14T10:27:02;27.70;46.20
50955;DHT22;36966;48.064;-0.792;2023-06-14T10:29:21;27.70;46.40
50955;DHT22;36966;48.064;-0.792;2023-06-14T10:31:41;27.70;46.30
50955;DHT22;36966;48.064;-0.792;2023-06-14T10:34:01;27.70;46.30
50955;DHT22;36966;48.064;-0.792;2023-06-14T10:36:29;27.70;46.40
50955;DHT22;36966;48.064;-0.792;2023-06-14T10:39:05;27.70;46.30
50955;DHT22;36966;48.064;-0.792;2023-06-14T10:41:26;27.70;46.40
50955;DHT22;36966;48.064;-0.792;2023-06-14T10:43:46;27.70;45.40
50955;DHT22;36966;48.064;-0.792;2023-06-14T10:48:40;27.70;45.80
50955;DHT22;36966;48.064;-0.792;2023-06-14T10:51:02;27.70;46.40
50955;DHT22;36966;48.064;-0.792;2023-06-14T10:53:24;27.70;46.20
50955;DHT22;36966;48.064;-0.792;2023-06-14T10:55:44;27.70;45.60
50955;DHT22;36966;48.064;-0.792;2023-06-14T10:58:03;27.90;44.20
50955;DHT22;36966;48.064;-0.792;2023-06-14T11:00:23;27.90;43.90
50955;DHT22;36966;48.064;-0.792;2023-06-14T11:05:26;27.80;44.20
50955;DHT22;36966;48.064;-0.792;2023-06-14T11:12:58;27.80;45.10
50955;DHT22;36966;48.064;-0.792;2023-06-14T11:15:18;27.80;44.90
50955;DHT22;36966;48.064;-0.792;2023-06-14T11:17:37;27.80;45.30
50955;DHT22;36966;48.064;-0.792;2023-06-14T11:20:09;27.70;45.60
50955;DHT22;36966;48.064;-0.792;2023-06-14T11:22:28;27.70;45.80
50955;DHT22;36966;48.064;-0.792;2023-06-14T11:24:48;27.70;45.80
50955;DHT22;36966;48.064;-0.792;2023-06-14T11:27:07;27.70;45.80
50955;DHT22;36966;48.064;-0.792;2023-06-14T11:29:28;27.60;45.80
50955;DHT22;36966;48.064;-0.792;2023-06-14T11:31:48;27.60;45.80
50955;DHT22;36966;48.064;-0.792;2023-06-14T11:34:08;27.60;44.70
50955;DHT22;36966;48.064;-0.792;2023-06-14T11:36:28;27.60;45.40
50955;DHT22;36966;48.064;-0.792;2023-06-14T11:38:50;27.50;45.20
50955;DHT22;36966;48.064;-0.792;2023-06-14T11:41:17;27.60;45.30
50955;DHT22;36966;48.064;-0.792;2023-06-14T11:43:36;27.60;45.20
50955;DHT22;36966;48.064;-0.792;2023-06-14T11:45:56;27.60;43.70
50955;DHT22;36966;48.064;-0.792;2023-06-14T11:48:15;27.60;44.10
50955;DHT22;36966;48.064;-0.792;2023-06-14T11:50:37;27.70;43.90
50955;DHT22;36966;48.064;-0.792;2023-06-14T11:52:57;27.70;43.30
50955;DHT22;36966;48.064;-0.792;2023-06-14T11:55:18;27.70;43.70
50955;DHT22;36966;48.064;-0.792;2023-06-14T11:57:37;27.70;43.40
50955;DHT22;36966;48.064;-0.792;2023-06-14T11:59:57;27.80;41.50
50955;DHT22;36966;48.064;-0.792;2023-06-14T12:02:17;27.80;43.00
50955;DHT22;36966;48.064;-0.792;2023-06-14T12:04:36;27.80;42.50
50955;DHT22;36966;48.064;-0.792;2023-06-14T12:06:55;27.80;41.90
50955;DHT22;36966;48.064;-0.792;2023-06-14T12:09:16;27.70;43.00
50955;DHT22;36966;48.064;-0.792;2023-06-14T12:11:36;27.70;43.40
50955;DHT22;36966;48.064;-0.792;2023-06-14T12:13:56;27.70;43.80
50955;DHT22;36966;48.064;-0.792;2023-06-14T12:16:15;27.60;44.10
50955;DHT22;36966;48.064;-0.792;2023-06-14T12:18:35;27.60;44.30
50955;DHT22;36966;48.064;-0.792;2023-06-14T12:20:54;27.50;44.20
50955;DHT22;36966;48.064;-0.792;2023-06-14T12:23:14;27.50;44.30
50955;DHT22;36966;48.064;-0.792;2023-06-14T12:25:35;27.40;44.20
50955;DHT22;36966;48.064;-0.792;2023-06-14T12:27:55;27.40;43.70
50955;DHT22;36966;48.064;-0.792;2023-06-14T12:30:15;27.40;44.00
50955;DHT22;36966;48.064;-0.792;2023-06-14T12:32:34;27.30;44.00
50955;DHT22;36966;48.064;-0.792;2023-06-14T12:34:53;27.30;43.70
50955;DHT22;36966;48.064;-0.792;2023-06-14T12:37:13;27.30;43.90
50955;DHT22;36966;48.064;-0.792;2023-06-14T12:39:32;27.30;43.30
50955;DHT22;36966;48.064;-0.792;2023-06-14T12:41:52;27.40;43.60
50955;DHT22;36966;48.064;-0.792;2023-06-14T12:44:11;27.30;43.40
50955;DHT22;36966;48.064;-0.792;2023-06-14T12:46:31;27.40;43.50
50955;DHT22;36966;48.064;-0.792;2023-06-14T12:48:51;27.40;43.00
50955;DHT22;36966;48.064;-0.792;2023-06-14T12:51:10;27.40;43.40
50955;DHT22;36966;48.064;-0.792;2023-06-14T12:53:29;27.50;43.10
50955;DHT22;36966;48.064;-0.792;2023-06-14T12:55:49;27.50;42.60
50955;DHT22;36966;48.064;-0.792;2023-06-14T12:58:08;27.50;42.80
50955;DHT22;36966;48.064;-0.792;2023-06-14T13:00:27;27.50;42.60
50955;DHT22;36966;48.064;-0.792;2023-06-14T13:02:48;27.50;42.80
50955;DHT22;36966;48.064;-0.792;2023-06-14T13:05:09;27.50;42.90
50955;DHT22;36966;48.064;-0.792;2023-06-14T13:07:28;27.50;43.30
50955;DHT22;36966;48.064;-0.792;2023-06-14T13:09:48;27.40;43.40
50955;DHT22;36966;48.064;-0.792;2023-06-14T13:12:08;27.40;43.50
50955;DHT22;36966;48.064;-0.792;2023-06-14T13:14:28;27.40;43.50
50955;DHT22;36966;48.064;-0.792;2023-06-14T13:16:47;27.40;43.20
50955;DHT22;36966;48.064;-0.792;2023-06-14T13:19:06;27.40;43.10
50955;DHT22;36966;48.064;-0.792;2023-06-14T13:21:26;27.40;42.10
50955;DHT22;36966;48.064;-0.792;2023-06-14T13:23:45;27.40;42.60
50955;DHT22;36966;48.064;-0.792;2023-06-14T13:26:04;27.40;43.00
50955;DHT22;36966;48.064;-0.792;2023-06-14T13:28:23;27.30;43.10
50955;DHT22;36966;48.064;-0.792;2023-06-14T13:30:42;27.30;43.20
50955;DHT22;36966;48.064;-0.792;2023-06-14T13:33:02;27.40;43.00
50955;DHT22;36966;48.064;-0.792;2023-06-14T13:35:21;27.30;43.20
50955;DHT22;36966;48.064;-0.792;2023-06-14T13:37:40;27.40;43.20
50955;DHT22;36966;48.064;-0.792;2023-06-14T13:40:00;27.30;43.40
50955;DHT22;36966;48.064;-0.792;2023-06-14T13:42:19;27.30;43.40
50955;DHT22;36966;48.064;-0.792;2023-06-14T13:44:38;27.40;43.20
50955;DHT22;36966;48.064;-0.792;2023-06-14T13:46:58;27.40;43.10
50955;DHT22;36966;48.064;-0.792;2023-06-14T13:49:17;27.40;43.30
50955;DHT22;36966;48.064;-0.792;2023-06-14T13:51:36;27.40;43.20
50955;DHT22;36966;48.064;-0.792;2023-06-14T13:53:56;27.40;43.00
50955;DHT22;36966;48.064;-0.792;2023-06-14T13:56:15;27.40;43.20
50955;DHT22;36966;48.064;-0.792;2023-06-14T13:58:34;27.40;43.20
50955;DHT22;36966;48.064;-0.792;2023-06-14T14:00:53;27.40;42.40
50955;DHT22;36966;48.064;-0.792;2023-06-14T14:03:13;27.40;42.30
50955;DHT22;36966;48.064;-0.792;2023-06-14T14:05:32;27.40;42.50
50955;DHT22;36966;48.064;-0.792;2023-06-14T14:07:52;27.40;42.80
50955;DHT22;36966;48.064;-0.792;2023-06-14T14:10:11;27.30;42.90
50955;DHT22;36966;48.064;-0.792;2023-06-14T14:12:32;27.40;42.40
50955;DHT22;36966;48.064;-0.792;2023-06-14T14:14:51;27.40;42.50
50955;DHT22;36966;48.064;-0.792;2023-06-14T14:17:11;27.40;41.60
50955;DHT22;36966;48.064;-0.792;2023-06-14T14:19:31;27.50;41.70
50955;DHT22;36966;48.064;-0.792;2023-06-14T14:21:50;27.50;41.70
50955;DHT22;36966;48.064;-0.792;2023-06-14T14:24:09;27.40;41.70
50955;DHT22;36966;48.064;-0.792;2023-06-14T14:26:29;27.50;42.10
50955;DHT22;36966;48.064;-0.792;2023-06-14T14:28:48;27.50;42.10
50955;DHT22;36966;48.064;-0.792;2023-06-14T14:31:07;27.50;42.40
50955;DHT22;36966;48.064;-0.792;2023-06-14T14:33:26;27.40;42.10
50955;DHT22;36966;48.064;-0.792;2023-06-14T14:35:46;27.40;42.40
50955;DHT22;36966;48.064;-0.792;2023-06-14T14:38:05;27.40;42.20
50955;DHT22;36966;48.064;-0.792;2023-06-14T14:40:25;27.40;42.30
50955;DHT22;36966;48.064;-0.792;2023-06-14T14:42:44;27.40;42.10
50955;DHT22;36966;48.064;-0.792;2023-06-14T14:45:03;27.30;41.80